sensor_id;sensor_type;location;lat;lon;timestamp;temperature;humidity
37786;DHT22;23625;48.784;9.336;2023-03-23T00:01:27;11.90;97.40
37786;DHT22;23625;48.784;9.336;2023-03-23T00:03:56;11.90;97.90
37786;DHT22;23625;48.784;9.336;2023-03-23T00:06:23;11.90;98.10
37786;DHT22;23625;48.784;9.336;2023-03-23T00:08:50;11.90;98.10
37786;DHT22;23625;48.784;9.336;2023-03-23T00:11:23;12.00;97.70
37786;DHT22;23625;48.784;9.336;2023-03-23T00:13:51;12.00;96.80
37786;DHT22;23625;48.784;9.336;2023-03-23T00:16:19;12.00;98.40
37786;DHT22;23625;48.784;9.336;2023-03-23T00:18:51;12.00;98.40
37786;DHT22;23625;48.784;9.336;2023-03-23T00:21:21;12.00;98.40
37786;DHT22;23625;48.784;9.336;2023-03-23T00:23:53;12.00;98.40
37786;DHT22;23625;48.784;9.336;2023-03-23T00:26:19;12.00;99.90
37786;DHT22;23625;48.784;9.336;2023-03-23T00:28:45;11.90;99.30
37786;DHT22;23625;48.784;9.336;2023-03-23T00:31:12;12.00;99.90
37786;DHT22;23625;48.784;9.336;2023-03-23T00:33:39;11.90;99.90
37786;DHT22;23625;48.784;9.336;2023-03-23T00:36:08;11.90;99.20
37786;DHT22;23625;48.784;9.336;2023-03-23T00:38:34;12.00;97.40
37786;DHT22;23625;48.784;9.336;2023-03-23T00:41:00;12.10;93.50
37786;DHT22;23625;48.784;9.336;2023-03-23T00:43:29;12.10;99.90
37786;DHT22;23625;48.784;9.336;2023-03-23T00:45:56;12.10;98.00
37786;DHT22;23625;48.784;9.336;2023-03-23T00:48:23;12.00;99.90
37786;DHT22;23625;48.784;9.336;2023-03-23T00:50:50;12.00;99.90
37786;DHT22;23625;48.784;9.336;2023-03-23T00:53:17;12.00;99.90
37786;DHT22;23625;48.784;9.336;2023-03-23T00:55:43;11.90;99.90
37786;DHT22;23625;48.784;9.336;2023-03-23T00:58:10;11.90;99.90
37786;DHT22;23625;48.784;9.336;2023-03-23T01:00:36;11.80;99.90
37786;DHT22;23625;48.784;9.336;2023-03-23T01:03:02;11.90;98.00
37786;DHT22;23625;48.784;9.336;2023-03-23T01:05:28;12.00;96.40
37786;DHT22;23625;48.784;9.336;2023-03-23T01:07:58;12.00;95.10
37786;DHT22;23625;48.784;9.336;2023-03-23T01:10:23;12.10;93.10
37786;DHT22;23625;48.784;9.336;2023-03-23T01:12:52;12.20;92.60
37786;DHT22;23625;48.784;9.336;2023-03-23T01:15:19;12.30;91.40
37786;DHT22;23625;48.784;9.336;2023-03-23T01:17:45;12.30;89.50
37786;DHT22;23625;48.784;9.336;2023-03-23T01:20:13;12.50;85.00
37786;DHT22;23625;48.784;9.336;2023-03-23T01:22:40;12.60;84.70
37786;DHT22;23625;48.784;9.336;2023-03-23T01:25:06;12.60;81.80
37786;DHT22;23625;48.784;9.336;2023-03-23T01:27:32;12.70;80.60
37786;DHT22;23625;48.784;9.336;2023-03-23T01:29:57;12.80;78.80
37786;DHT22;23625;48.784;9.336;2023-03-23T01:32:23;12.80;78.40
37786;DHT22;23625;48.784;9.336;2023-03-23T01:34:48;12.90;77.80
37786;DHT22;23625;48.784;9.336;2023-03-23T01:37:14;12.90;77.20
37786;DHT22;23625;48.784;9.336;2023-03-23T01:39:41;12.90;77.90
37786;DHT22;23625;48.784;9.336;2023-03-23T01:42:11;12.90;78.00
37786;DHT22;23625;48.784;9.336;2023-03-23T01:47:02;12.90;78.50
37786;DHT22;23625;48.784;9.336;2023-03-23T01:49:35;12.90;77.00
37786;DHT22;23625;48.784;9.336;2023-03-23T01:52:05;12.90;76.80
37786;DHT22;23625;48.784;9.336;2023-03-23T01:54:32;13.00;76.10
37786;DHT22;23625;48.784;9.336;2023-03-23T01:57:03;13.00;76.80
37786;DHT22;23625;48.784;9.336;2023-03-23T01:59:30;13.00;78.80
37786;DHT22;23625;48.784;9.336;2023-03-23T02:01:57;12.90;79.70
37786;DHT22;23625;48.784;9.336;2023-03-23T02:04:24;12.90;78.50
37786;DHT22;23625;48.784;9.336;2023-03-23T02:06:51;12.90;79.50
37786;DHT22;23625;48.784;9.336;2023-03-23T02:09:18;12.90;79.40
37786;DHT22;23625;48.784;9.336;2023-03-23T02:11:45;12.80;80.50
37786;DHT22;23625;48.784;9.336;2023-03-23T02:14:11;12.80;80.70
37786;DHT22;23625;48.784;9.336;2023-03-23T02:17:16;12.80;88.50
37786;DHT22;23625;48.784;9.336;2023-03-23T02:34:17;12.50;92.20
37786;DHT22;23625;48.784;9.336;2023-03-23T02:36:52;12.50;93.10
37786;DHT22;23625;48.784;9.336;2023-03-23T02:39:22;12.60;90.10
37786;DHT22;23625;48.784;9.336;2023-03-23T02:42:00;12.60;89.80
37786;DHT22;23625;48.784;9.336;2023-03-23T02:44:28;12.70;90.10
37786;DHT22;23625;48.784;9.336;2023-03-23T02:46:56;12.60;89.30
37786;DHT22;23625;48.784;9.336;2023-03-23T02:49:25;12.60;90.10
37786;DHT22;23625;48.784;9.336;2023-03-23T02:51:53;12.70;88.50
37786;DHT22;23625;48.784;9.336;2023-03-23T02:54:20;12.70;86.80
37786;DHT22;23625;48.784;9.336;2023-03-23T02:56:51;12.80;86.20
37786;DHT22;23625;48.784;9.336;2023-03-23T02:59:18;12.80;84.60
37786;DHT22;23625;48.784;9.336;2023-03-23T03:04:14;12.80;83.60
37786;DHT22;23625;48.784;9.336;2023-03-23T03:06:58;12.90;83.50
37786;DHT22;23625;48.784;9.336;2023-03-23T03:09:37;12.80;84.30
37786;DHT22;23625;48.784;9.336;2023-03-23T03:12:09;12.80;86.40
37786;DHT22;23625;48.784;9.336;2023-03-23T03:14:44;12.80;85.70
37786;DHT22;23625;48.784;9.336;2023-03-23T03:17:26;12.80;84.40
37786;DHT22;23625;48.784;9.336;2023-03-23T03:19:59;12.90;85.20
37786;DHT22;23625;48.784;9.336;2023-03-23T03:22:30;12.90;83.50
37786;DHT22;23625;48.784;9.336;2023-03-23T03:25:00;13.00;81.00
37786;DHT22;23625;48.784;9.336;2023-03-23T03:27:26;13.10;80.20
37786;DHT22;23625;48.784;9.336;2023-03-23T03:29:56;13.10;79.40
37786;DHT22;23625;48.784;9.336;2023-03-23T03:32:34;13.20;78.40
37786;DHT22;23625;48.784;9.336;2023-03-23T03:35:04;13.20;77.20
37786;DHT22;23625;48.784;9.336;2023-03-23T03:37:35;13.20;77.60
37786;DHT22;23625;48.784;9.336;2023-03-23T03:40:10;13.20;77.80
37786;DHT22;23625;48.784;9.336;2023-03-23T03:42:41;13.20;78.60
37786;DHT22;23625;48.784;9.336;2023-03-23T03:45:09;13.20;78.10
37786;DHT22;23625;48.784;9.336;2023-03-23T03:47:35;13.30;76.70
37786;DHT22;23625;48.784;9.336;2023-03-23T03:50:01;13.30;76.50
37786;DHT22;23625;48.784;9.336;2023-03-23T03:52:27;13.30;77.80
37786;DHT22;23625;48.784;9.336;2023-03-23T03:54:53;13.40;77.20
37786;DHT22;23625;48.784;9.336;2023-03-23T03:57:19;13.50;76.50
37786;DHT22;23625;48.784;9.336;2023-03-23T03:59:45;13.60;76.40
37786;DHT22;23625;48.784;9.336;2023-03-23T04:02:11;13.60;74.90
37786;DHT22;23625;48.784;9.336;2023-03-23T04:04:40;13.70;73.90
37786;DHT22;23625;48.784;9.336;2023-03-23T04:07:07;13.70;74.70
37786;DHT22;23625;48.784;9.336;2023-03-23T04:09:32;13.70;75.50
37786;DHT22;23625;48.784;9.336;2023-03-23T04:11:58;13.70;75.70
37786;DHT22;23625;48.784;9.336;2023-03-23T04:14:23;13.70;75.70
37786;DHT22;23625;48.784;9.336;2023-03-23T04:16:49;13.70;75.20
37786;DHT22;23625;48.784;9.336;2023-03-23T04:19:17;13.70;75.20
37786;DHT22;23625;48.784;9.336;2023-03-23T04:21:43;13.60;76.90
37786;DHT22;23625;48.784;9.336;2023-03-23T04:24:11;13.70;76.00
37786;DHT22;23625;48.784;9.336;2023-03-23T04:26:36;13.70;75.60
37786;DHT22;23625;48.784;9.336;2023-03-23T04:29:05;13.70;75.90
37786;DHT22;23625;48.784;9.336;2023-03-23T04:31:31;13.70;76.60
37786;DHT22;23625;48.784;9.336;2023-03-23T04:33:57;13.70;76.60
37786;DHT22;23625;48.784;9.336;2023-03-23T04:36:25;13.60;76.10
37786;DHT22;23625;48.784;9.336;2023-03-23T04:38:50;13.60;75.90
37786;DHT22;23625;48.784;9.336;2023-03-23T04:41:20;13.60;76.10
37786;DHT22;23625;48.784;9.336;2023-03-23T04:43:45;13.60;76.70
37786;DHT22;23625;48.784;9.336;2023-03-23T04:46:11;13.70;77.30
37786;DHT22;23625;48.784;9.336;2023-03-23T04:48:37;13.70;76.30
37786;DHT22;23625;48.784;9.336;2023-03-23T04:51:05;13.80;77.70
37786;DHT22;23625;48.784;9.336;2023-03-23T04:53:31;13.90;78.20
37786;DHT22;23625;48.784;9.336;2023-03-23T04:55:57;13.90;77.30
37786;DHT22;23625;48.784;9.336;2023-03-23T04:58:23;13.70;78.50
37786;DHT22;23625;48.784;9.336;2023-03-23T05:00:50;13.60;84.10
37786;DHT22;23625;48.784;9.336;2023-03-23T05:03:19;13.40;87.60
37786;DHT22;23625;48.784;9.336;2023-03-23T05:05:45;13.50;86.40
37786;DHT22;23625;48.784;9.336;2023-03-23T05:08:21;13.50;84.70
37786;DHT22;23625;48.784;9.336;2023-03-23T05:10:55;13.40;88.50
37786;DHT22;23625;48.784;9.336;2023-03-23T05:13:22;13.30;90.70
37786;DHT22;23625;48.784;9.336;2023-03-23T05:15:48;13.30;90.70
37786;DHT22;23625;48.784;9.336;2023-03-23T05:18:14;13.30;90.70
37786;DHT22;23625;48.784;9.336;2023-03-23T05:20:40;13.30;90.60
37786;DHT22;23625;48.784;9.336;2023-03-23T05:23:08;13.20;92.60
37786;DHT22;23625;48.784;9.336;2023-03-23T05:25:35;13.10;94.30
37786;DHT22;23625;48.784;9.336;2023-03-23T05:28:09;13.00;97.70
37786;DHT22;23625;48.784;9.336;2023-03-23T05:30:36;12.90;95.00
37786;DHT22;23625;48.784;9.336;2023-03-23T05:33:02;12.90;94.10
37786;DHT22;23625;48.784;9.336;2023-03-23T05:35:29;12.90;93.60
37786;DHT22;23625;48.784;9.336;2023-03-23T05:37:55;12.90;92.00
37786;DHT22;23625;48.784;9.336;2023-03-23T05:40:21;13.00;92.50
37786;DHT22;23625;48.784;9.336;2023-03-23T05:42:47;13.00;93.20
37786;DHT22;23625;48.784;9.336;2023-03-23T05:45:13;13.10;93.40
37786;DHT22;23625;48.784;9.336;2023-03-23T05:47:40;13.00;93.00
37786;DHT22;23625;48.784;9.336;2023-03-23T05:50:07;13.00;95.80
37786;DHT22;23625;48.784;9.336;2023-03-23T05:52:35;12.90;95.30
37786;DHT22;23625;48.784;9.336;2023-03-23T05:55:04;12.90;94.70
37786;DHT22;23625;48.784;9.336;2023-03-23T05:57:30;12.80;93.50
37786;DHT22;23625;48.784;9.336;2023-03-23T05:59:56;12.90;93.80
37786;DHT22;23625;48.784;9.336;2023-03-23T06:02:23;13.00;92.40
37786;DHT22;23625;48.784;9.336;2023-03-23T06:04:50;13.00;92.10
37786;DHT22;23625;48.784;9.336;2023-03-23T06:07:16;13.00;94.00
37786;DHT22;23625;48.784;9.336;2023-03-23T06:09:41;13.10;94.60
37786;DHT22;23625;48.784;9.336;2023-03-23T06:12:08;13.10;93.50
37786;DHT22;23625;48.784;9.336;2023-03-23T06:14:35;13.10;93.40
37786;DHT22;23625;48.784;9.336;2023-03-23T06:17:01;13.20;92.60
37786;DHT22;23625;48.784;9.336;2023-03-23T06:19:27;13.20;92.90
37786;DHT22;23625;48.784;9.336;2023-03-23T06:21:55;13.20;98.80
37786;DHT22;23625;48.784;9.336;2023-03-23T06:24:22;13.10;96.70
37786;DHT22;23625;48.784;9.336;2023-03-23T06:26:48;13.20;96.00
37786;DHT22;23625;48.784;9.336;2023-03-23T06:29:15;13.30;91.40
37786;DHT22;23625;48.784;9.336;2023-03-23T06:31:44;13.30;90.10
37786;DHT22;23625;48.784;9.336;2023-03-23T06:34:10;13.40;93.50
37786;DHT22;23625;48.784;9.336;2023-03-23T06:36:37;13.40;91.10
37786;DHT22;23625;48.784;9.336;2023-03-23T06:39:04;13.50;91.60
37786;DHT22;23625;48.784;9.336;2023-03-23T06:41:33;13.50;91.30
37786;DHT22;23625;48.784;9.336;2023-03-23T06:43:59;13.50;92.00
37786;DHT22;23625;48.784;9.336;2023-03-23T06:46:26;13.50;95.00
37786;DHT22;23625;48.784;9.336;2023-03-23T06:48:52;13.50;92.00
37786;DHT22;23625;48.784;9.336;2023-03-23T06:51:18;13.60;85.40
37786;DHT22;23625;48.784;9.336;2023-03-23T06:53:44;13.60;91.60
37786;DHT22;23625;48.784;9.336;2023-03-23T06:56:10;13.50;95.30
37786;DHT22;23625;48.784;9.336;2023-03-23T06:58:37;13.50;99.10
37786;DHT22;23625;48.784;9.336;2023-03-23T07:01:03;13.40;99.90
37786;DHT22;23625;48.784;9.336;2023-03-23T07:03:29;13.40;98.00
37786;DHT22;23625;48.784;9.336;2023-03-23T07:05:56;13.50;99.90
37786;DHT22;23625;48.784;9.336;2023-03-23T07:08:22;13.50;99.90
37786;DHT22;23625;48.784;9.336;2023-03-23T07:10:51;13.60;98.90
37786;DHT22;23625;48.784;9.336;2023-03-23T07:13:18;13.60;99.40
37786;DHT22;23625;48.784;9.336;2023-03-23T07:15:43;13.70;99.90
37786;DHT22;23625;48.784;9.336;2023-03-23T07:18:09;13.70;94.50
37786;DHT22;23625;48.784;9.336;2023-03-23T07:20:35;13.80;93.00
37786;DHT22;23625;48.784;9.336;2023-03-23T07:23:01;13.90;91.30
37786;DHT22;23625;48.784;9.336;2023-03-23T07:25:27;14.00;93.00
37786;DHT22;23625;48.784;9.336;2023-03-23T07:27:53;14.10;88.10
37786;DHT22;23625;48.784;9.336;2023-03-23T07:30:19;14.20;84.30
37786;DHT22;23625;48.784;9.336;2023-03-23T07:32:45;14.30;77.70
37786;DHT22;23625;48.784;9.336;2023-03-23T07:35:10;14.40;77.60
37786;DHT22;23625;48.784;9.336;2023-03-23T07:37:36;14.40;76.80
37786;DHT22;23625;48.784;9.336;2023-03-23T07:40:03;14.40;76.30
37786;DHT22;23625;48.784;9.336;2023-03-23T07:42:45;14.50;76.20
37786;DHT22;23625;48.784;9.336;2023-03-23T07:45:12;14.50;74.70
37786;DHT22;23625;48.784;9.336;2023-03-23T07:47:39;14.60;74.40
37786;DHT22;23625;48.784;9.336;2023-03-23T07:50:06;14.60;75.90
37786;DHT22;23625;48.784;9.336;2023-03-23T07:52:32;14.60;74.50
37786;DHT22;23625;48.784;9.336;2023-03-23T07:54:59;14.70;76.90
37786;DHT22;23625;48.784;9.336;2023-03-23T07:57:26;14.70;74.70
37786;DHT22;23625;48.784;9.336;2023-03-23T07:59:52;14.80;74.50
37786;DHT22;23625;48.784;9.336;2023-03-23T08:02:18;14.80;74.30
37786;DHT22;23625;48.784;9.336;2023-03-23T08:04:44;14.90;73.80
37786;DHT22;23625;48.784;9.336;2023-03-23T08:07:10;15.00;74.50
37786;DHT22;23625;48.784;9.336;2023-03-23T08:09:37;15.10;74.60
37786;DHT22;23625;48.784;9.336;2023-03-23T08:12:04;15.30;74.20
37786;DHT22;23625;48.784;9.336;2023-03-23T08:14:30;15.40;73.70
37786;DHT22;23625;48.784;9.336;2023-03-23T08:16:56;15.40;71.90
37786;DHT22;23625;48.784;9.336;2023-03-23T08:19:22;15.50;72.70
37786;DHT22;23625;48.784;9.336;2023-03-23T08:21:49;15.70;71.30
37786;DHT22;23625;48.784;9.336;2023-03-23T08:24:15;15.70;72.30
37786;DHT22;23625;48.784;9.336;2023-03-23T08:26:41;15.80;71.40
37786;DHT22;23625;48.784;9.336;2023-03-23T08:29:07;15.90;71.40
37786;DHT22;23625;48.784;9.336;2023-03-23T08:31:33;16.10;68.90
37786;DHT22;23625;48.784;9.336;2023-03-23T08:34:04;16.20;68.10
37786;DHT22;23625;48.784;9.336;2023-03-23T08:36:32;16.30;68.30
37786;DHT22;23625;48.784;9.336;2023-03-23T08:38:58;16.30;69.50
37786;DHT22;23625;48.784;9.336;2023-03-23T08:41:24;16.30;69.40
37786;DHT22;23625;48.784;9.336;2023-03-23T08:43:50;16.30;69.60
37786;DHT22;23625;48.784;9.336;2023-03-23T08:46:18;16.30;70.60
37786;DHT22;23625;48.784;9.336;2023-03-23T08:48:45;16.30;71.10
37786;DHT22;23625;48.784;9.336;2023-03-23T08:51:11;16.40;70.10
37786;DHT22;23625;48.784;9.336;2023-03-23T08:53:38;16.50;68.70
37786;DHT22;23625;48.784;9.336;2023-03-23T08:56:10;16.40;68.80
37786;DHT22;23625;48.784;9.336;2023-03-23T08:58:38;16.30;69.70
37786;DHT22;23625;48.784;9.336;2023-03-23T09:01:05;16.30;70.50
37786;DHT22;23625;48.784;9.336;2023-03-23T09:03:32;16.20;70.40
37786;DHT22;23625;48.784;9.336;2023-03-23T09:06:03;16.20;70.50
37786;DHT22;23625;48.784;9.336;2023-03-23T09:08:30;16.20;72.20
37786;DHT22;23625;48.784;9.336;2023-03-23T09:11:01;16.10;73.00
37786;DHT22;23625;48.784;9.336;2023-03-23T09:13:28;16.10;73.60
37786;DHT22;23625;48.784;9.336;2023-03-23T09:15:53;16.10;72.60
37786;DHT22;23625;48.784;9.336;2023-03-23T09:18:19;16.10;73.70
37786;DHT22;23625;48.784;9.336;2023-03-23T09:20:45;16.10;74.10
37786;DHT22;23625;48.784;9.336;2023-03-23T09:23:11;16.20;74.20
37786;DHT22;23625;48.784;9.336;2023-03-23T09:25:39;16.40;72.20
37786;DHT22;23625;48.784;9.336;2023-03-23T09:28:05;16.40;72.90
37786;DHT22;23625;48.784;9.336;2023-03-23T09:30:33;16.40;73.10
37786;DHT22;23625;48.784;9.336;2023-03-23T09:33:00;16.40;73.20
37786;DHT22;23625;48.784;9.336;2023-03-23T09:35:27;16.40;73.10
37786;DHT22;23625;48.784;9.336;2023-03-23T09:37:53;16.50;72.40
37786;DHT22;23625;48.784;9.336;2023-03-23T09:40:21;16.50;73.20
37786;DHT22;23625;48.784;9.336;2023-03-23T09:50:42;16.60;72.00
37786;DHT22;23625;48.784;9.336;2023-03-23T09:53:27;16.40;73.40
37786;DHT22;23625;48.784;9.336;2023-03-23T09:56:01;16.50;72.30
37786;DHT22;23625;48.784;9.336;2023-03-23T09:58:35;16.60;71.80
37786;DHT22;23625;48.784;9.336;2023-03-23T10:01:25;16.60;72.90
37786;DHT22;23625;48.784;9.336;2023-03-23T10:03:48;16.60;72.30
37786;DHT22;23625;48.784;9.336;2023-03-23T10:06:18;16.60;71.30
37786;DHT22;23625;48.784;9.336;2023-03-23T10:08:52;16.60;71.70
37786;DHT22;23625;48.784;9.336;2023-03-23T10:11:39;16.70;71.70
37786;DHT22;23625;48.784;9.336;2023-03-23T10:14:16;16.80;72.00
37786;DHT22;23625;48.784;9.336;2023-03-23T10:17:04;16.80;71.60
37786;DHT22;23625;48.784;9.336;2023-03-23T10:22:16;16.70;72.30
37786;DHT22;23625;48.784;9.336;2023-03-23T10:27:59;16.80;71.30
37786;DHT22;23625;48.784;9.336;2023-03-23T10:31:05;16.70;71.80
37786;DHT22;23625;48.784;9.336;2023-03-23T10:36:07;16.80;72.50
37786;DHT22;23625;48.784;9.336;2023-03-23T10:38:41;16.90;72.10
37786;DHT22;23625;48.784;9.336;2023-03-23T10:41:13;16.80;72.40
37786;DHT22;23625;48.784;9.336;2023-03-23T10:43:40;17.10;71.60
37786;DHT22;23625;48.784;9.336;2023-03-23T10:46:26;17.10;73.70
37786;DHT22;23625;48.784;9.336;2023-03-23T10:48:54;17.20;70.60
37786;DHT22;23625;48.784;9.336;2023-03-23T10:51:25;17.20;70.50
37786;DHT22;23625;48.784;9.336;2023-03-23T10:53:57;17.20;70.80
37786;DHT22;23625;48.784;9.336;2023-03-23T10:56:27;17.20;70.20
37786;DHT22;23625;48.784;9.336;2023-03-23T10:58:53;17.00;70.70
37786;DHT22;23625;48.784;9.336;2023-03-23T11:01:29;17.00;72.60
37786;DHT22;23625;48.784;9.336;2023-03-23T11:03:55;17.00;72.10
37786;DHT22;23625;48.784;9.336;2023-03-23T11:06:29;17.10;71.40
37786;DHT22;23625;48.784;9.336;2023-03-23T11:08:58;17.20;70.40
37786;DHT22;23625;48.784;9.336;2023-03-23T11:11:31;17.20;70.90
37786;DHT22;23625;48.784;9.336;2023-03-23T11:13:59;17.10;72.10
37786;DHT22;23625;48.784;9.336;2023-03-23T11:16:41;17.20;73.00
37786;DHT22;23625;48.784;9.336;2023-03-23T11:19:14;17.30;71.40
37786;DHT22;23625;48.784;9.336;2023-03-23T11:21:40;17.40;70.30
37786;DHT22;23625;48.784;9.336;2023-03-23T11:24:08;17.40;70.20
37786;DHT22;23625;48.784;9.336;2023-03-23T11:26:34;17.30;71.60
37786;DHT22;23625;48.784;9.336;2023-03-23T11:29:16;17.20;71.00
37786;DHT22;23625;48.784;9.336;2023-03-23T11:34:17;17.10;71.60
37786;DHT22;23625;48.784;9.336;2023-03-23T11:36:50;17.10;74.60
37786;DHT22;23625;48.784;9.336;2023-03-23T11:39:28;17.10;73.10
37786;DHT22;23625;48.784;9.336;2023-03-23T11:41:57;17.20;72.70
37786;DHT22;23625;48.784;9.336;2023-03-23T11:44:31;17.20;73.60
37786;DHT22;23625;48.784;9.336;2023-03-23T11:47:04;17.10;76.00
37786;DHT22;23625;48.784;9.336;2023-03-23T11:50:00;17.20;76.90
37786;DHT22;23625;48.784;9.336;2023-03-23T11:55:16;17.10;79.00
37786;DHT22;23625;48.784;9.336;2023-03-23T11:57:44;17.10;75.90
37786;DHT22;23625;48.784;9.336;2023-03-23T12:00:21;17.10;75.30
37786;DHT22;23625;48.784;9.336;2023-03-23T12:03:07;17.10;76.10
37786;DHT22;23625;48.784;9.336;2023-03-23T12:08:34;17.10;75.80
37786;DHT22;23625;48.784;9.336;2023-03-23T12:11:27;17.20;78.30
37786;DHT22;23625;48.784;9.336;2023-03-23T12:31:24;17.40;74.30
37786;DHT22;23625;48.784;9.336;2023-03-23T12:41:49;17.50;70.90
37786;DHT22;23625;48.784;9.336;2023-03-23T12:44:23;17.50;71.40
37786;DHT22;23625;48.784;9.336;2023-03-23T12:49:56;17.60;71.20
37786;DHT22;23625;48.784;9.336;2023-03-23T12:52:28;17.60;70.20
37786;DHT22;23625;48.784;9.336;2023-03-23T12:55:21;17.60;71.10
37786;DHT22;23625;48.784;9.336;2023-03-23T12:58:19;17.90;68.20
37786;DHT22;23625;48.784;9.336;2023-03-23T13:01:09;17.90;67.70
37786;DHT22;23625;48.784;9.336;2023-03-23T13:06:34;18.00;66.90
37786;DHT22;23625;48.784;9.336;2023-03-23T13:09:32;18.10;65.70
37786;DHT22;23625;48.784;9.336;2023-03-23T13:12:03;18.20;65.70
37786;DHT22;23625;48.784;9.336;2023-03-23T13:17:45;18.10;66.40
37786;DHT22;23625;48.784;9.336;2023-03-23T13:28:19;18.00;65.40
37786;DHT22;23625;48.784;9.336;2023-03-23T13:33:23;17.90;65.60
37786;DHT22;23625;48.784;9.336;2023-03-23T13:35:49;17.90;65.40
37786;DHT22;23625;48.784;9.336;2023-03-23T13:40:48;17.90;66.00
37786;DHT22;23625;48.784;9.336;2023-03-23T13:43:25;17.90;66.30
37786;DHT22;23625;48.784;9.336;2023-03-23T13:45:52;17.80;66.60
37786;DHT22;23625;48.784;9.336;2023-03-23T13:48:22;17.80;67.00
37786;DHT22;23625;48.784;9.336;2023-03-23T13:50:55;17.80;67.00
37786;DHT22;23625;48.784;9.336;2023-03-23T13:53:45;17.70;67.50
37786;DHT22;23625;48.784;9.336;2023-03-23T13:58:48;17.70;66.80
37786;DHT22;23625;48.784;9.336;2023-03-23T14:01:19;17.70;66.20
37786;DHT22;23625;48.784;9.336;2023-03-23T14:03:59;17.70;66.70
37786;DHT22;23625;48.784;9.336;2023-03-23T14:06:33;17.70;67.20
37786;DHT22;23625;48.784;9.336;2023-03-23T14:09:27;17.80;66.50
37786;DHT22;23625;48.784;9.336;2023-03-23T14:11:58;17.70;65.80
37786;DHT22;23625;48.784;9.336;2023-03-23T14:14:31;17.70;65.20
37786;DHT22;23625;48.784;9.336;2023-03-23T14:17:18;17.70;65.20
37786;DHT22;23625;48.784;9.336;2023-03-23T14:19:51;17.70;64.50
37786;DHT22;23625;48.784;9.336;2023-03-23T14:22:27;17.70;64.90
37786;DHT22;23625;48.784;9.336;2023-03-23T14:25:00;17.60;65.50
37786;DHT22;23625;48.784;9.336;2023-03-23T14:27:27;17.70;65.30
37786;DHT22;23625;48.784;9.336;2023-03-23T14:30:05;17.60;65.00
37786;DHT22;23625;48.784;9.336;2023-03-23T14:32:32;17.60;65.80
37786;DHT22;23625;48.784;9.336;2023-03-23T14:34:59;17.70;64.80
37786;DHT22;23625;48.784;9.336;2023-03-23T14:37:26;17.70;65.40
37786;DHT22;23625;48.784;9.336;2023-03-23T14:39:53;17.70;64.80
37786;DHT22;23625;48.784;9.336;2023-03-23T14:42:35;17.80;62.90
37786;DHT22;23625;48.784;9.336;2023-03-23T14:45:04;17.80;62.30
37786;DHT22;23625;48.784;9.336;2023-03-23T14:47:34;17.80;61.50
37786;DHT22;23625;48.784;9.336;2023-03-23T14:50:03;17.80;61.90
37786;DHT22;23625;48.784;9.336;2023-03-23T14:52:35;17.80;61.90
37786;DHT22;23625;48.784;9.336;2023-03-23T14:55:21;17.80;62.30
37786;DHT22;23625;48.784;9.336;2023-03-23T14:57:48;17.90;61.20
37786;DHT22;23625;48.784;9.336;2023-03-23T15:00:20;17.80;61.70
37786;DHT22;23625;48.784;9.336;2023-03-23T15:02:49;17.70;61.50
37786;DHT22;23625;48.784;9.336;2023-03-23T15:05:29;17.80;61.50
37786;DHT22;23625;48.784;9.336;2023-03-23T15:07:59;17.90;62.00
37786;DHT22;23625;48.784;9.336;2023-03-23T15:10:26;17.80;61.30
37786;DHT22;23625;48.784;9.336;2023-03-23T15:12:52;18.00;60.00
37786;DHT22;23625;48.784;9.336;2023-03-23T15:15:29;17.90;59.90
37786;DHT22;23625;48.784;9.336;2023-03-23T15:17:56;17.80;60.30
37786;DHT22;23625;48.784;9.336;2023-03-23T15:22:49;17.80;59.80
37786;DHT22;23625;48.784;9.336;2023-03-23T15:25:30;17.90;59.40
37786;DHT22;23625;48.784;9.336;2023-03-23T15:28:12;17.80;59.70
37786;DHT22;23625;48.784;9.336;2023-03-23T15:30:53;17.80;59.30
37786;DHT22;23625;48.784;9.336;2023-03-23T15:33:20;17.90;59.40
37786;DHT22;23625;48.784;9.336;2023-03-23T15:35:53;17.90;58.80
37786;DHT22;23625;48.784;9.336;2023-03-23T15:40:52;17.90;58.80
37786;DHT22;23625;48.784;9.336;2023-03-23T15:46:20;17.90;58.50
37786;DHT22;23625;48.784;9.336;2023-03-23T15:48:54;17.80;59.00
37786;DHT22;23625;48.784;9.336;2023-03-23T15:51:31;17.80;59.40
37786;DHT22;23625;48.784;9.336;2023-03-23T15:53:57;17.90;59.20
37786;DHT22;23625;48.784;9.336;2023-03-23T15:56:24;17.80;59.50
37786;DHT22;23625;48.784;9.336;2023-03-23T15:58:51;17.60;60.00
37786;DHT22;23625;48.784;9.336;2023-03-23T16:01:26;17.60;60.20
37786;DHT22;23625;48.784;9.336;2023-03-23T16:03:59;17.60;60.70
37786;DHT22;23625;48.784;9.336;2023-03-23T16:06:27;17.50;61.10
37786;DHT22;23625;48.784;9.336;2023-03-23T16:08:54;17.50;60.60
37786;DHT22;23625;48.784;9.336;2023-03-23T16:11:21;17.50;60.70
37786;DHT22;23625;48.784;9.336;2023-03-23T16:13:48;17.50;60.80
37786;DHT22;23625;48.784;9.336;2023-03-23T16:16:20;17.50;60.70
37786;DHT22;23625;48.784;9.336;2023-03-23T16:18:46;17.40;61.00
37786;DHT22;23625;48.784;9.336;2023-03-23T16:21:12;17.50;60.80
37786;DHT22;23625;48.784;9.336;2023-03-23T16:23:38;17.50;60.80
37786;DHT22;23625;48.784;9.336;2023-03-23T16:26:05;17.50;60.30
37786;DHT22;23625;48.784;9.336;2023-03-23T16:28:31;17.50;61.10
37786;DHT22;23625;48.784;9.336;2023-03-23T16:30:56;17.40;60.60
37786;DHT22;23625;48.784;9.336;2023-03-23T16:33:22;17.40;60.70
37786;DHT22;23625;48.784;9.336;2023-03-23T16:35:48;17.40;60.60
37786;DHT22;23625;48.784;9.336;2023-03-23T16:38:14;17.30;60.80
37786;DHT22;23625;48.784;9.336;2023-03-23T16:40:45;17.20;60.80
37786;DHT22;23625;48.784;9.336;2023-03-23T16:43:11;17.20;61.00
37786;DHT22;23625;48.784;9.336;2023-03-23T16:45:41;17.10;61.00
37786;DHT22;23625;48.784;9.336;2023-03-23T16:48:08;17.20;61.60
37786;DHT22;23625;48.784;9.336;2023-03-23T16:50:36;17.10;61.40
37786;DHT22;23625;48.784;9.336;2023-03-23T16:53:03;17.00;61.80
37786;DHT22;23625;48.784;9.336;2023-03-23T16:55:29;16.90;62.10
37786;DHT22;23625;48.784;9.336;2023-03-23T16:57:56;17.10;61.80
37786;DHT22;23625;48.784;9.336;2023-03-23T17:00:22;17.10;61.80
37786;DHT22;23625;48.784;9.336;2023-03-23T17:02:49;17.00;62.40
37786;DHT22;23625;48.784;9.336;2023-03-23T17:05:18;16.90;63.30
37786;DHT22;23625;48.784;9.336;2023-03-23T17:07:44;16.80;63.50
37786;DHT22;23625;48.784;9.336;2023-03-23T17:10:11;16.80;63.60
37786;DHT22;23625;48.784;9.336;2023-03-23T17:12:38;16.80;63.80
37786;DHT22;23625;48.784;9.336;2023-03-23T17:15:04;16.70;64.00
37786;DHT22;23625;48.784;9.336;2023-03-23T17:17:30;16.90;63.80
37786;DHT22;23625;48.784;9.336;2023-03-23T17:19:56;16.90;63.30
37786;DHT22;23625;48.784;9.336;2023-03-23T17:22:22;16.90;63.40
37786;DHT22;23625;48.784;9.336;2023-03-23T17:24:47;16.90;63.60
37786;DHT22;23625;48.784;9.336;2023-03-23T17:27:15;16.70;64.40